sensor_id;sensor_type;location;lat;lon;timestamp;P1;durP1;ratioP1;P2;durP2;ratioP2
40907;SDS011;51055;59.436;24.778;2022-08-25T00:01:55;3.35;;;1.92;;
40907;SDS011;51055;59.436;24.778;2022-08-25T00:04:28;3.33;;;1.70;;
40907;SDS011;51055;59.436;24.778;2022-08-25T00:06:55;4.72;;;1.90;;
40907;SDS011;51055;59.436;24.778;2022-08-25T00:09:29;4.07;;;1.70;;
40907;SDS011;51055;59.436;24.778;2022-08-25T00:11:58;3.58;;;1.80;;
40907;SDS011;51055;59.436;24.778;2022-08-25T00:14:28;3.23;;;1.83;;
40907;SDS011;51055;59.436;24.778;2022-08-25T00:17:00;3.83;;;1.95;;
40907;SDS011;51055;59.436;24.778;2022-08-25T00:21:58;3.42;;;1.63;;
40907;SDS011;51055;59.436;24.778;2022-08-25T00:24:27;3.15;;;1.70;;
40907;SDS011;51055;59.436;24.778;2022-08-25T00:26:56;3.58;;;1.92;;
40907;SDS011;51055;59.436;24.778;2022-08-25T00:29:25;3.70;;;2.00;;
40907;SDS011;51055;59.436;24.778;2022-08-25T00:31:54;3.17;;;1.80;;
40907;SDS011;51055;59.436;24.778;2022-08-25T00:34:24;4.47;;;2.15;;
40907;SDS011;51055;59.436;24.778;2022-08-25T00:36:57;3.42;;;1.75;;
40907;SDS011;51055;59.436;24.778;2022-08-25T00:39:25;3.25;;;1.85;;
40907;SDS011;51055;59.436;24.778;2022-08-25T00:41:54;3.35;;;1.60;;
40907;SDS011;51055;59.436;24.778;2022-08-25T00:44:24;2.60;;;1.70;;
40907;SDS011;51055;59.436;24.778;2022-08-25T00:46:55;3.05;;;1.70;;
40907;SDS011;51055;59.436;24.778;2022-08-25T00:52:19;3.42;;;1.70;;
40907;SDS011;51055;59.436;24.778;2022-08-25T01:00:44;3.10;;;1.45;;
40907;SDS011;51055;59.436;24.778;2022-08-25T01:03:16;2.90;;;1.55;;
40907;SDS011;51055;59.436;24.778;2022-08-25T01:05:45;4.25;;;1.70;;
40907;SDS011;51055;59.436;24.778;2022-08-25T01:10:42;3.67;;;1.70;;
40907;SDS011;51055;59.436;24.778;2022-08-25T01:15:51;3.67;;;1.70;;
40907;SDS011;51055;59.436;24.778;2022-08-25T01:18:21;3.58;;;1.70;;
40907;SDS011;51055;59.436;24.778;2022-08-25T01:20:57;2.95;;;1.67;;
40907;SDS011;51055;59.436;24.778;2022-08-25T01:23:26;3.78;;;1.98;;
40907;SDS011;51055;59.436;24.778;2022-08-25T01:26:04;4.00;;;1.90;;
40907;SDS011;51055;59.436;24.778;2022-08-25T01:28:36;4.15;;;1.80;;
40907;SDS011;51055;59.436;24.778;2022-08-25T01:31:04;2.58;;;1.55;;
40907;SDS011;51055;59.436;24.778;2022-08-25T01:33:50;2.90;;;1.60;;
40907;SDS011;51055;59.436;24.778;2022-08-25T01:36:19;2.97;;;1.77;;
40907;SDS011;51055;59.436;24.778;2022-08-25T01:38:48;3.70;;;1.70;;
40907;SDS011;51055;59.436;24.778;2022-08-25T01:41:26;4.15;;;1.70;;
40907;SDS011;51055;59.436;24.778;2022-08-25T01:44:17;2.70;;;1.52;;
40907;SDS011;51055;59.436;24.778;2022-08-25T01:46:45;3.38;;;1.50;;
40907;SDS011;51055;59.436;24.778;2022-08-25T01:49:13;2.47;;;1.43;;
40907;SDS011;51055;59.436;24.778;2022-08-25T01:51:48;3.55;;;1.60;;
40907;SDS011;51055;59.436;24.778;2022-08-25T01:54:19;2.42;;;1.50;;
40907;SDS011;51055;59.436;24.778;2022-08-25T01:56:47;2.53;;;1.50;;
40907;SDS011;51055;59.436;24.778;2022-08-25T01:59:15;2.78;;;1.70;;
40907;SDS011;51055;59.436;24.778;2022-08-25T02:01:50;3.75;;;1.60;;
40907;SDS011;51055;59.436;24.778;2022-08-25T02:04:27;3.80;;;1.50;;
40907;SDS011;51055;59.436;24.778;2022-08-25T02:06:59;2.58;;;1.40;;
40907;SDS011;51055;59.436;24.778;2022-08-25T02:09:31;2.40;;;1.25;;
40907;SDS011;51055;59.436;24.778;2022-08-25T02:11:59;3.25;;;1.20;;
40907;SDS011;51055;59.436;24.778;2022-08-25T02:14:27;2.60;;;1.27;;
40907;SDS011;51055;59.436;24.778;2022-08-25T02:16:55;2.47;;;1.10;;
40907;SDS011;51055;59.436;24.778;2022-08-25T02:19:23;2.28;;;1.20;;
40907;SDS011;51055;59.436;24.778;2022-08-25T02:21:52;2.22;;;1.10;;
40907;SDS011;51055;59.436;24.778;2022-08-25T02:24:20;1.80;;;1.00;;
40907;SDS011;51055;59.436;24.778;2022-08-25T02:26:47;4.13;;;1.20;;
40907;SDS011;51055;59.436;24.778;2022-08-25T02:29:16;2.67;;;1.10;;
40907;SDS011;51055;59.436;24.778;2022-08-25T02:31:44;1.38;;;0.85;;
40907;SDS011;51055;59.436;24.778;2022-08-25T02:34:12;2.17;;;0.95;;
40907;SDS011;51055;59.436;24.778;2022-08-25T02:36:41;1.92;;;1.05;;
40907;SDS011;51055;59.436;24.778;2022-08-25T02:41:38;1.52;;;0.80;;
40907;SDS011;51055;59.436;24.778;2022-08-25T02:44:06;3.50;;;0.88;;
40907;SDS011;51055;59.436;24.778;2022-08-25T02:46:35;1.40;;;0.90;;
40907;SDS011;51055;59.436;24.778;2022-08-25T02:49:04;2.30;;;0.90;;
40907;SDS011;51055;59.436;24.778;2022-08-25T02:51:33;1.45;;;0.77;;
40907;SDS011;51055;59.436;24.778;2022-08-25T02:54:02;1.13;;;0.90;;
40907;SDS011;51055;59.436;24.778;2022-08-25T02:56:30;2.10;;;1.20;;
40907;SDS011;51055;59.436;24.778;2022-08-25T02:58:59;3.47;;;1.30;;
40907;SDS011;51055;59.436;24.778;2022-08-25T03:01:28;1.55;;;1.08;;
40907;SDS011;51055;59.436;24.778;2022-08-25T03:03:59;1.45;;;0.90;;
40907;SDS011;51055;59.436;24.778;2022-08-25T03:08:55;1.80;;;1.00;;
40907;SDS011;51055;59.436;24.778;2022-08-25T03:11:23;2.22;;;0.90;;
40907;SDS011;51055;59.436;24.778;2022-08-25T03:13:51;1.52;;;0.82;;
40907;SDS011;51055;59.436;24.778;2022-08-25T03:18:53;1.20;;;0.80;;
40907;SDS011;51055;59.436;24.778;2022-08-25T03:21:23;0.98;;;0.75;;
40907;SDS011;51055;59.436;24.778;2022-08-25T03:26:19;1.45;;;0.88;;
40907;SDS011;51055;59.436;24.778;2022-08-25T03:29:06;1.85;;;0.88;;
40907;SDS011;51055;59.436;24.778;2022-08-25T03:31:33;2.20;;;0.90;;
40907;SDS011;51055;59.436;24.778;2022-08-25T03:34:02;3.65;;;1.00;;
40907;SDS011;51055;59.436;24.778;2022-08-25T03:36:30;1.27;;;0.80;;
40907;SDS011;51055;59.436;24.778;2022-08-25T03:38:58;1.77;;;0.90;;
40907;SDS011;51055;59.436;24.778;2022-08-25T03:41:27;1.67;;;0.80;;
40907;SDS011;51055;59.436;24.778;2022-08-25T03:43:58;1.65;;;0.90;;
40907;SDS011;51055;59.436;24.778;2022-08-25T03:46:29;4.03;;;1.20;;
40907;SDS011;51055;59.436;24.778;2022-08-25T03:49:02;1.95;;;1.10;;
40907;SDS011;51055;59.436;24.778;2022-08-25T03:51:45;1.60;;;1.00;;
40907;SDS011;51055;59.436;24.778;2022-08-25T03:54:15;1.58;;;0.93;;
40907;SDS011;51055;59.436;24.778;2022-08-25T03:56:47;2.30;;;0.90;;
40907;SDS011;51055;59.436;24.778;2022-08-25T03:59:14;1.50;;;0.80;;
40907;SDS011;51055;59.436;24.778;2022-08-25T04:01:42;2.65;;;1.10;;
40907;SDS011;51055;59.436;24.778;2022-08-25T04:04:12;2.00;;;1.05;;
40907;SDS011;51055;59.436;24.778;2022-08-25T04:06:42;1.38;;;0.88;;
40907;SDS011;51055;59.436;24.778;2022-08-25T04:09:10;1.17;;;0.65;;
40907;SDS011;51055;59.436;24.778;2022-08-25T04:11:39;1.40;;;0.80;;
40907;SDS011;51055;59.436;24.778;2022-08-25T04:14:08;1.13;;;0.70;;
40907;SDS011;51055;59.436;24.778;2022-08-25T04:16:43;1.40;;;0.88;;
40907;SDS011;51055;59.436;24.778;2022-08-25T04:19:11;1.70;;;0.85;;
40907;SDS011;51055;59.436;24.778;2022-08-25T04:21:39;1.88;;;0.85;;
40907;SDS011;51055;59.436;24.778;2022-08-25T04:24:08;2.17;;;0.70;;
40907;SDS011;51055;59.436;24.778;2022-08-25T04:26:39;0.70;;;0.65;;
40907;SDS011;51055;59.436;24.778;2022-08-25T04:29:09;1.08;;;0.70;;
40907;SDS011;51055;59.436;24.778;2022-08-25T04:31:38;1.60;;;0.70;;
40907;SDS011;51055;59.436;24.778;2022-08-25T04:34:08;1.65;;;0.80;;
40907;SDS011;51055;59.436;24.778;2022-08-25T04:36:55;2.88;;;0.50;;
40907;SDS011;51055;59.436;24.778;2022-08-25T04:39:22;0.90;;;0.60;;
40907;SDS011;51055;59.436;24.778;2022-08-25T04:41:50;2.63;;;1.17;;
40907;SDS011;51055;59.436;24.778;2022-08-25T04:44:18;2.50;;;0.60;;
40907;SDS011;51055;59.436;24.778;2022-08-25T04:46:45;1.40;;;0.90;;
40907;SDS011;51055;59.436;24.778;2022-08-25T04:49:13;1.50;;;0.70;;
40907;SDS011;51055;59.436;24.778;2022-08-25T04:51:41;1.35;;;0.50;;
40907;SDS011;51055;59.436;24.778;2022-08-25T04:54:10;0.82;;;0.60;;
40907;SDS011;51055;59.436;24.778;2022-08-25T04:56:40;1.13;;;0.43;;
40907;SDS011;51055;59.436;24.778;2022-08-25T04:59:11;0.60;;;0.52;;
40907;SDS011;51055;59.436;24.778;2022-08-25T05:01:41;1.55;;;0.70;;
40907;SDS011;51055;59.436;24.778;2022-08-25T05:04:10;0.50;;;0.50;;
40907;SDS011;51055;59.436;24.778;2022-08-25T05:06:54;0.68;;;0.52;;
40907;SDS011;51055;59.436;24.778;2022-08-25T05:09:22;1.25;;;0.60;;
40907;SDS011;51055;59.436;24.778;2022-08-25T05:14:20;1.52;;;0.70;;
40907;SDS011;51055;59.436;24.778;2022-08-25T05:16:55;0.52;;;0.52;;
40907;SDS011;51055;59.436;24.778;2022-08-25T05:19:23;1.27;;;0.52;;
40907;SDS011;51055;59.436;24.778;2022-08-25T05:21:51;1.50;;;0.80;;
40907;SDS011;51055;59.436;24.778;2022-08-25T05:24:20;0.90;;;0.60;;
40907;SDS011;51055;59.436;24.778;2022-08-25T05:26:48;0.75;;;0.60;;
40907;SDS011;51055;59.436;24.778;2022-08-25T05:29:16;0.77;;;0.50;;
40907;SDS011;51055;59.436;24.778;2022-08-25T05:31:44;2.20;;;0.70;;
40907;SDS011;51055;59.436;24.778;2022-08-25T05:34:17;0.60;;;0.57;;
40907;SDS011;51055;59.436;24.778;2022-08-25T05:36:46;0.95;;;0.75;;
40907;SDS011;51055;59.436;24.778;2022-08-25T05:39:14;0.40;;;0.40;;
40907;SDS011;51055;59.436;24.778;2022-08-25T05:41:41;0.70;;;0.60;;
40907;SDS011;51055;59.436;24.778;2022-08-25T05:44:10;1.10;;;0.70;;
40907;SDS011;51055;59.436;24.778;2022-08-25T05:46:39;0.80;;;0.52;;
40907;SDS011;51055;59.436;24.778;2022-08-25T05:49:06;0.73;;;0.38;;
40907;SDS011;51055;59.436;24.778;2022-08-25T05:51:34;1.92;;;0.50;;
40907;SDS011;51055;59.436;24.778;2022-08-25T05:54:02;0.68;;;0.40;;
40907;SDS011;51055;59.436;24.778;2022-08-25T05:56:30;0.90;;;0.45;;
40907;SDS011;51055;59.436;24.778;2022-08-25T05:58:57;0.98;;;0.60;;
40907;SDS011;51055;59.436;24.778;2022-08-25T06:01:26;0.47;;;0.47;;
40907;SDS011;51055;59.436;24.778;2022-08-25T06:04:14;1.58;;;0.80;;
40907;SDS011;51055;59.436;24.778;2022-08-25T06:06:44;1.23;;;0.80;;
40907;SDS011;51055;59.436;24.778;2022-08-25T06:09:12;1.33;;;0.60;;
40907;SDS011;51055;59.436;24.778;2022-08-25T06:11:40;0.80;;;0.50;;
40907;SDS011;51055;59.436;24.778;2022-08-25T06:14:08;1.92;;;0.60;;
40907;SDS011;51055;59.436;24.778;2022-08-25T06:16:37;1.13;;;0.50;;
40907;SDS011;51055;59.436;24.778;2022-08-25T06:19:06;0.80;;;0.60;;
40907;SDS011;51055;59.436;24.778;2022-08-25T06:21:35;1.63;;;0.60;;
40907;SDS011;51055;59.436;24.778;2022-08-25T06:24:05;0.50;;;0.50;;
40907;SDS011;51055;59.436;24.778;2022-08-25T06:26:39;0.73;;;0.52;;
40907;SDS011;51055;59.436;24.778;2022-08-25T06:29:06;2.35;;;0.70;;
40907;SDS011;51055;59.436;24.778;2022-08-25T06:31:34;0.60;;;0.60;;
40907;SDS011;51055;59.436;24.778;2022-08-25T06:34:02;0.98;;;0.55;;
40907;SDS011;51055;59.436;24.778;2022-08-25T06:36:29;0.40;;;0.40;;
40907;SDS011;51055;59.436;24.778;2022-08-25T06:38:57;1.30;;;0.70;;
40907;SDS011;51055;59.436;24.778;2022-08-25T06:41:25;1.83;;;0.85;;
40907;SDS011;51055;59.436;24.778;2022-08-25T06:44:07;2.28;;;0.52;;
40907;SDS011;51055;59.436;24.778;2022-08-25T06:46:37;0.95;;;0.60;;
40907;SDS011;51055;59.436;24.778;2022-08-25T06:49:05;0.65;;;0.50;;
40907;SDS011;51055;59.436;24.778;2022-08-25T06:51:34;1.60;;;0.50;;
40907;SDS011;51055;59.436;24.778;2022-08-25T06:54:03;1.05;;;0.60;;
40907;SDS011;51055;59.436;24.778;2022-08-25T06:56:32;1.17;;;0.75;;
40907;SDS011;51055;59.436;24.778;2022-08-25T06:59:02;1.25;;;0.75;;
40907;SDS011;51055;59.436;24.778;2022-08-25T07:01:30;0.88;;;0.70;;
40907;SDS011;51055;59.436;24.778;2022-08-25T07:04:00;0.50;;;0.50;;
40907;SDS011;51055;59.436;24.778;2022-08-25T07:06:34;0.70;;;0.50;;
40907;SDS011;51055;59.436;24.778;2022-08-25T07:09:06;0.77;;;0.43;;
40907;SDS011;51055;59.436;24.778;2022-08-25T07:11:34;0.90;;;0.50;;
40907;SDS011;51055;59.436;24.778;2022-08-25T07:14:03;1.70;;;0.60;;
40907;SDS011;51055;59.436;24.778;2022-08-25T07:16:32;1.70;;;0.63;;
40907;SDS011;51055;59.436;24.778;2022-08-25T07:19:01;0.68;;;0.60;;
40907;SDS011;51055;59.436;24.778;2022-08-25T07:21:30;0.73;;;0.57;;
40907;SDS011;51055;59.436;24.778;2022-08-25T07:24:10;1.48;;;0.60;;
40907;SDS011;51055;59.436;24.778;2022-08-25T07:26:39;1.75;;;0.80;;
40907;SDS011;51055;59.436;24.778;2022-08-25T07:29:10;1.33;;;0.60;;
40907;SDS011;51055;59.436;24.778;2022-08-25T07:31:43;0.85;;;0.50;;
40907;SDS011;51055;59.436;24.778;2022-08-25T07:34:11;1.63;;;0.50;;
40907;SDS011;51055;59.436;24.778;2022-08-25T07:36:57;2.33;;;0.70;;
40907;SDS011;51055;59.436;24.778;2022-08-25T07:39:25;0.93;;;0.60;;
40907;SDS011;51055;59.436;24.778;2022-08-25T07:41:55;1.00;;;0.52;;
40907;SDS011;51055;59.436;24.778;2022-08-25T07:44:23;1.40;;;0.60;;
40907;SDS011;51055;59.436;24.778;2022-08-25T07:46:54;1.65;;;0.40;;
40907;SDS011;51055;59.436;24.778;2022-08-25T07:49:22;0.50;;;0.43;;
40907;SDS011;51055;59.436;24.778;2022-08-25T07:51:52;0.85;;;0.50;;
40907;SDS011;51055;59.436;24.778;2022-08-25T07:54:32;1.40;;;0.60;;
40907;SDS011;51055;59.436;24.778;2022-08-25T07:57:05;0.40;;;0.40;;
40907;SDS011;51055;59.436;24.778;2022-08-25T07:59:39;0.80;;;0.45;;
40907;SDS011;51055;59.436;24.778;2022-08-25T08:02:08;1.77;;;0.50;;
40907;SDS011;51055;59.436;24.778;2022-08-25T08:04:48;0.88;;;0.60;;
40907;SDS011;51055;59.436;24.778;2022-08-25T08:07:22;0.45;;;0.45;;
40907;SDS011;51055;59.436;24.778;2022-08-25T08:10:10;1.92;;;0.57;;
40907;SDS011;51055;59.436;24.778;2022-08-25T08:12:59;1.10;;;0.60;;
40907;SDS011;51055;59.436;24.778;2022-08-25T08:15:28;1.45;;;0.65;;
40907;SDS011;51055;59.436;24.778;2022-08-25T08:17:57;2.03;;;0.70;;
40907;SDS011;51055;59.436;24.778;2022-08-25T08:20:25;1.85;;;0.80;;
40907;SDS011;51055;59.436;24.778;2022-08-25T08:22:53;1.48;;;0.60;;
40907;SDS011;51055;59.436;24.778;2022-08-25T08:25:21;3.00;;;0.80;;
40907;SDS011;51055;59.436;24.778;2022-08-25T08:27:54;0.60;;;0.45;;
40907;SDS011;51055;59.436;24.778;2022-08-25T08:32:53;1.17;;;0.50;;
40907;SDS011;51055;59.436;24.778;2022-08-25T08:35:40;0.52;;;0.43;;
40907;SDS011;51055;59.436;24.778;2022-08-25T08:38:09;1.33;;;0.40;;
40907;SDS011;51055;59.436;24.778;2022-08-25T08:40:50;0.93;;;0.70;;
40907;SDS011;51055;59.436;24.778;2022-08-25T08:50:21;1.75;;;0.57;;
40907;SDS011;51055;59.436;24.778;2022-08-25T08:52:21;0.57;;;0.45;;
40907;SDS011;51055;59.436;24.778;2022-08-25T08:55:05;0.45;;;0.40;;
40907;SDS011;51055;59.436;24.778;2022-08-25T08:57:41;1.08;;;0.50;;
40907;SDS011;51055;59.436;24.778;2022-08-25T09:00:14;1.50;;;0.60;;
40907;SDS011;51055;59.436;24.778;2022-08-25T09:03:26;2.90;;;0.60;;
40907;SDS011;51055;59.436;24.778;2022-08-25T09:05:55;2.28;;;0.50;;
40907;SDS011;51055;59.436;24.778;2022-08-25T09:08:29;0.57;;;0.50;;
40907;SDS011;51055;59.436;24.778;2022-08-25T09:25:14;0.50;;;0.50;;
40907;SDS011;51055;59.436;24.778;2022-08-25T09:30:59;4.47;;;1.20;;
40907;SDS011;51055;59.436;24.778;2022-08-25T09:33:32;1.77;;;0.55;;
40907;SDS011;51055;59.436;24.778;2022-08-25T09:36:03;1.80;;;0.60;;
40907;SDS011;51055;59.436;24.778;2022-08-25T09:38:35;2.33;;;0.60;;
40907;SDS011;51055;59.436;24.778;2022-08-25T09:41:04;1.77;;;0.63;;
40907;SDS011;51055;59.436;24.778;2022-08-25T09:43:35;0.60;;;0.60;;
40907;SDS011;51055;59.436;24.778;2022-08-25T09:46:11;0.57;;;0.55;;
40907;SDS011;51055;59.436;24.778;2022-08-25T09:49:09;1.07;;;0.60;;
40907;SDS011;51055;59.436;24.778;2022-08-25T09:51:38;0.95;;;0.65;;
40907;SDS011;51055;59.436;24.778;2022-08-25T09:59:26;1.05;;;0.60;;
40907;SDS011;51055;59.436;24.778;2022-08-25T10:02:02;2.90;;;1.15;;
40907;SDS011;51055;59.436;24.778;2022-08-25T10:04:35;1.50;;;0.80;;
40907;SDS011;51055;59.436;24.778;2022-08-25T10:07:26;1.23;;;0.65;;
40907;SDS011;51055;59.436;24.778;2022-08-25T10:09:57;1.25;;;0.70;;
40907;SDS011;51055;59.436;24.778;2022-08-25T10:12:29;1.73;;;0.80;;
40907;SDS011;51055;59.436;24.778;2022-08-25T10:15:22;1.45;;;0.70;;
40907;SDS011;51055;59.436;24.778;2022-08-25T10:23:35;1.33;;;0.70;;
40907;SDS011;51055;59.436;24.778;2022-08-25T10:26:09;1.05;;;0.60;;
40907;SDS011;51055;59.436;24.778;2022-08-25T10:28:47;2.13;;;0.80;;
40907;SDS011;51055;59.436;24.778;2022-08-25T10:31:36;1.20;;;0.75;;
40907;SDS011;51055;59.436;24.778;2022-08-25T10:34:19;1.38;;;0.70;;
40907;SDS011;51055;59.436;24.778;2022-08-25T10:37:44;1.63;;;0.70;;
40907;SDS011;51055;59.436;24.778;2022-08-25T10:40:06;3.08;;;0.90;;
40907;SDS011;51055;59.436;24.778;2022-08-25T10:42:40;1.30;;;0.80;;
40907;SDS011;51055;59.436;24.778;2022-08-25T10:45:12;2.95;;;0.95;;
40907;SDS011;51055;59.436;24.778;2022-08-25T10:48:18;1.63;;;0.90;;
40907;SDS011;51055;59.436;24.778;2022-08-25T10:57:21;1.42;;;0.88;;
40907;SDS011;51055;59.436;24.778;2022-08-25T11:00:08;1.20;;;0.80;;
40907;SDS011;51055;59.436;24.778;2022-08-25T11:16:02;5.95;;;1.00;;
40907;SDS011;51055;59.436;24.778;2022-08-25T11:18:56;2.55;;;1.00;;
40907;SDS011;51055;59.436;24.778;2022-08-25T11:27:22;3.33;;;1.13;;
40907;SDS011;51055;59.436;24.778;2022-08-25T11:29:58;2.13;;;0.90;;
40907;SDS011;51055;59.436;24.778;2022-08-25T11:32:34;3.15;;;1.10;;
40907;SDS011;51055;59.436;24.778;2022-08-25T11:35:05;1.58;;;1.00;;
40907;SDS011;51055;59.436;24.778;2022-08-25T11:37:42;2.92;;;1.10;;
40907;SDS011;51055;59.436;24.778;2022-08-25T11:48:43;1.83;;;0.98;;
40907;SDS011;51055;59.436;24.778;2022-08-25T11:51:30;1.30;;;1.00;;
40907;SDS011;51055;59.436;24.778;2022-08-25T11:54:19;1.27;;;0.90;;
40907;SDS011;51055;59.436;24.778;2022-08-25T12:05:04;1.65;;;1.10;;
40907;SDS011;51055;59.436;24.778;2022-08-25T12:10:22;1.67;;;1.05;;
40907;SDS011;51055;59.436;24.778;2022-08-25T12:15:24;2.63;;;1.00;;
40907;SDS011;51055;59.436;24.778;2022-08-25T12:18:54;1.40;;;0.90;;
40907;SDS011;51055;59.436;24.778;2022-08-25T12:29:19;2.25;;;1.00;;
40907;SDS011;51055;59.436;24.778;2022-08-25T12:37:21;3.90;;;1.50;;
40907;SDS011;51055;59.436;24.778;2022-08-25T12:47:46;3.33;;;1.60;;
40907;SDS011;51055;59.436;24.778;2022-08-25T12:50:29;3.00;;;1.50;;
40907;SDS011;51055;59.436;24.778;2022-08-25T13:15:25;3.33;;;1.60;;
40907;SDS011;51055;59.436;24.778;2022-08-25T13:18:12;2.25;;;1.55;;
40907;SDS011;51055;59.436;24.778;2022-08-25T13:23:42;3.17;;;1.70;;
40907;SDS011;51055;59.436;24.778;2022-08-25T13:26:13;3.83;;;1.70;;
40907;SDS011;51055;59.436;24.778;2022-08-25T13:28:46;2.90;;;1.73;;
40907;SDS011;51055;59.436;24.778;2022-08-25T13:31:20;3.03;;;1.50;;
40907;SDS011;51055;59.436;24.778;2022-08-25T13:33:52;4.57;;;1.85;;
40907;SDS011;51055;59.436;24.778;2022-08-25T13:36:26;3.08;;;1.50;;
40907;SDS011;51055;59.436;24.778;2022-08-25T13:39:25;3.33;;;1.75;;
40907;SDS011;51055;59.436;24.778;2022-08-25T13:42:15;3.70;;;1.92;;
40907;SDS011;51055;59.436;24.778;2022-08-25T13:44:43;3.63;;;1.70;;
40907;SDS011;51055;59.436;24.778;2022-08-25T13:50:16;2.92;;;1.63;;
40907;SDS011;51055;59.436;24.778;2022-08-25T13:52:52;5.53;;;2.13;;
40907;SDS011;51055;59.436;24.778;2022-08-25T13:55:23;3.33;;;1.80;;
40907;SDS011;51055;59.436;24.778;2022-08-25T13:58:40;3.00;;;1.65;;
40907;SDS011;51055;59.436;24.778;2022-08-25T14:15:00;3.78;;;2.28;;
40907;SDS011;51055;59.436;24.778;2022-08-25T14:17:39;7.90;;;2.22;;
40907;SDS011;51055;59.436;24.778;2022-08-25T14:20:19;4.35;;;1.92;;
40907;SDS011;51055;59.436;24.778;2022-08-25T14:22:53;3.75;;;2.20;;
40907;SDS011;51055;59.436;24.778;2022-08-25T14:25:27;3.80;;;1.85;;
40907;SDS011;51055;59.436;24.778;2022-08-25T14:27:59;4.78;;;1.92;;
40907;SDS011;51055;59.436;24.778;2022-08-25T14:30:34;3.35;;;2.10;;
40907;SDS011;51055;59.436;24.778;2022-08-25T14:33:09;4.30;;;1.90;;
40907;SDS011;51055;59.436;24.778;2022-08-25T14:35:38;3.40;;;2.10;;
40907;SDS011;51055;59.436;24.778;2022-08-25T14:38:09;3.42;;;2.00;;
40907;SDS011;51055;59.436;24.778;2022-08-25T14:40:38;2.88;;;1.88;;
40907;SDS011;51055;59.436;24.778;2022-08-25T14:43:06;2.95;;;1.90;;
40907;SDS011;51055;59.436;24.778;2022-08-25T14:45:37;5.85;;;2.15;;
40907;SDS011;51055;59.436;24.778;2022-08-25T14:48:07;3.40;;;1.90;;
40907;SDS011;51055;59.436;24.778;2022-08-25T14:50:40;3.17;;;1.70;;
40907;SDS011;51055;59.436;24.778;2022-08-25T14:53:09;3.17;;;1.90;;
40907;SDS011;51055;59.436;24.778;2022-08-25T14:55:38;4.15;;;2.10;;
40907;SDS011;51055;59.436;24.778;2022-08-25T14:58:06;3.88;;;2.20;;
40907;SDS011;51055;59.436;24.778;2022-08-25T15:00:36;3.33;;;2.08;;
40907;SDS011;51055;59.436;24.778;2022-08-25T15:03:11;3.92;;;1.98;;
40907;SDS011;51055;59.436;24.778;2022-08-25T15:05:43;3.35;;;1.80;;
40907;SDS011;51055;59.436;24.778;2022-08-25T15:08:11;4.03;;;2.00;;
40907;SDS011;51055;59.436;24.778;2022-08-25T15:10:59;3.92;;;1.75;;
40907;SDS011;51055;59.436;24.778;2022-08-25T15:13:34;3.53;;;1.83;;
40907;SDS011;51055;59.436;24.778;2022-08-25T15:16:03;4.03;;;2.10;;
40907;SDS011;51055;59.436;24.778;2022-08-25T15:18:31;4.55;;;2.00;;
40907;SDS011;51055;59.436;24.778;2022-08-25T15:20:59;3.07;;;1.90;;
40907;SDS011;51055;59.436;24.778;2022-08-25T15:23:27;3.58;;;2.10;;
40907;SDS011;51055;59.436;24.778;2022-08-25T15:25:55;4.05;;;1.90;;
40907;SDS011;51055;59.436;24.778;2022-08-25T15:28:23;3.50;;;1.87;;
40907;SDS011;51055;59.436;24.778;2022-08-25T15:30:52;2.33;;;1.58;;
40907;SDS011;51055;59.436;24.778;2022-08-25T15:33:20;3.70;;;1.90;;
40907;SDS011;51055;59.436;24.778;2022-08-25T15:35:49;2.92;;;1.90;;
40907;SDS011;51055;59.436;24.778;2022-08-25T15:38:17;4.55;;;2.00;;
40907;SDS011;51055;59.436;24.778;2022-08-25T15:40:46;4.82;;;2.40;;
40907;SDS011;51055;59.436;24.778;2022-08-25T15:43:14;3.80;;;2.10;;
40907;SDS011;51055;59.436;24.778;2022-08-25T15:45:42;2.63;;;1.83;;
40907;SDS011;51055;59.436;24.778;2022-08-25T15:48:12;3.97;;;2.40;;
40907;SDS011;51055;59.436;24.778;2022-08-25T15:50:40;5.80;;;2.03;;
40907;SDS011;51055;59.436;24.778;2022-08-25T15:53:08;3.05;;;1.83;;
40907;SDS011;51055;59.436;24.778;2022-08-25T15:55:37;3.88;;;2.03;;
40907;SDS011;51055;59.436;24.778;2022-08-25T15:58:06;4.68;;;1.63;;
40907;SDS011;51055;59.436;24.778;2022-08-25T16:03:04;3.30;;;1.90;;
40907;SDS011;51055;59.436;24.778;2022-08-25T16:05:35;4.43;;;2.00;;
40907;SDS011;51055;59.436;24.778;2022-08-25T16:08:04;4.82;;;2.20;;
40907;SDS011;51055;59.436;24.778;2022-08-25T16:10:45;3.50;;;1.80;;
40907;SDS011;51055;59.436;24.778;2022-08-25T16:13:13;4.40;;;2.20;;
40907;SDS011;51055;59.436;24.778;2022-08-25T16:15:44;4.77;;;2.20;;
40907;SDS011;51055;59.436;24.778;2022-08-25T16:18:21;3.08;;;1.70;;
40907;SDS011;51055;59.436;24.778;2022-08-25T16:20:49;3.47;;;1.70;;
40907;SDS011;51055;59.436;24.778;2022-08-25T16:23:18;3.22;;;1.85;;
40907;SDS011;51055;59.436;24.778;2022-08-25T16:25:47;2.60;;;1.63;;
40907;SDS011;51055;59.436;24.778;2022-08-25T16:28:18;3.30;;;1.85;;
40907;SDS011;51055;59.436;24.778;2022-08-25T16:30:50;3.38;;;1.85;;
40907;SDS011;51055;59.436;24.778;2022-08-25T16:33:19;4.95;;;1.90;;
40907;SDS011;51055;59.436;24.778;2022-08-25T16:35:46;3.33;;;1.63;;
40907;SDS011;51055;59.436;24.778;2022-08-25T16:40:43;3.58;;;1.63;;
40907;SDS011;51055;59.436;24.778;2022-08-25T16:43:12;2.60;;;1.70;;
40907;SDS011;51055;59.436;24.778;2022-08-25T16:45:39;4.30;;;1.50;;
40907;SDS011;51055;59.436;24.778;2022-08-25T16:48:07;2.90;;;1.50;;
40907;SDS011;51055;59.436;24.778;2022-08-25T16:50:37;3.15;;;1.60;;
40907;SDS011;51055;59.436;24.778;2022-08-25T16:53:05;2.90;;;1.85;;
40907;SDS011;51055;59.436;24.778;2022-08-25T16:55:58;3.40;;;1.60;;
40907;SDS011;51055;59.436;24.778;2022-08-25T16:58:33;2.42;;;1.60;;
40907;SDS011;51055;59.436;24.778;2022-08-25T17:01:03;4.35;;;1.90;;
40907;SDS011;51055;59.436;24.778;2022-08-25T17:03:42;2.55;;;1.50;;
40907;SDS011;51055;59.436;24.778;2022-08-25T17:06:10;4.00;;;1.58;;
40907;SDS011;51055;59.436;24.778;2022-08-25T17:08:41;2.55;;;1.40;;
40907;SDS011;51055;59.436;24.778;2022-08-25T17:11:14;3.03;;;1.45;;
40907;SDS011;51055;59.436;24.778;2022-08-25T17:13:44;2.40;;;1.60;;
40907;SDS011;51055;59.436;24.778;2022-08-25T17:16:16;2.10;;;1.40;;
40907;SDS011;51055;59.436;24.778;2022-08-25T17:18:46;2.90;;;1.63;;
40907;SDS011;51055;59.436;24.778;2022-08-25T17:21:15;3.27;;;1.50;;
40907;SDS011;51055;59.436;24.778;2022-08-25T17:23:51;2.45;;;1.40;;
40907;SDS011;51055;59.436;24.778;2022-08-25T17:26:20;2.35;;;1.50;;
40907;SDS011;51055;59.436;24.778;2022-08-25T17:28:55;2.35;;;1.30;;
40907;SDS011;51055;59.436;24.778;2022-08-25T17:31:26;2.88;;;1.40;;
40907;SDS011;51055;59.436;24.778;2022-08-25T17:33:56;3.05;;;1.48;;
40907;SDS011;51055;59.436;24.778;2022-08-25T17:36:23;3.25;;;1.33;;
40907;SDS011;51055;59.436;24.778;2022-08-25T17:38:54;2.45;;;1.35;;
40907;SDS011;51055;59.436;24.778;2022-08-25T17:41:23;2.40;;;1.40;;
40907;SDS011;51055;59.436;24.778;2022-08-25T17:43:51;2.20;;;1.38;;
40907;SDS011;51055;59.436;24.778;2022-08-25T17:46:20;2.45;;;1.30;;
40907;SDS011;51055;59.436;24.778;2022-08-25T17:48:48;3.57;;;1.30;;
40907;SDS011;51055;59.436;24.778;2022-08-25T17:51:16;2.10;;;1.30;;
40907;SDS011;51055;59.436;24.778;2022-08-25T17:53:43;2.30;;;1.35;;
40907;SDS011;51055;59.436;24.778;2022-08-25T17:56:14;2.22;;;1.27;;
40907;SDS011;51055;59.436;24.778;2022-08-25T17:58:47;3.72;;;1.50;;
40907;SDS011;51055;59.436;24.778;2022-08-25T18:01:17;2.45;;;1.40;;
40907;SDS011;51055;59.436;24.778;2022-08-25T18:03:48;2.40;;;1.48;;
40907;SDS011;51055;59.436;24.778;2022-08-25T18:06:17;2.20;;;1.50;;